Time;durP1;ratioP1;P1;durP2;ratioP2;P2;SDS_P1;SDS_P2;PMS_P1;PMS_P2;Temp;Humidity;BMP_temperature;BMP_pressure;BME280_temperature;BME280_humidity;BME280_pressure;Samples;Min_cycle;Max_cycle;Signal;HPM_P1;HPM_P2
2023/08/13 00:01:41;;;;;;;0.83;0.83;;;22.00;99.90;;;22.41;93.16;100820.47;4976850;28;20697;-62
2023/08/13 00:04:08;;;;;;;1.03;1.03;;;21.90;99.90;;;22.40;93.46;100822.28;4974600;28;20639;-62
2023/08/13 00:06:35;;;;;;;0.90;0.90;;;22.00;99.90;;;22.38;93.37;100808.34;4979510;28;20642;-65
2023/08/13 00:09:04;;;;;;;1.20;1.20;;;21.90;99.90;;;22.34;93.43;100808.91;4985237;28;20654;-63
2023/08/13 00:11:32;;;;;;;1.10;1.00;;;21.90;99.90;;;22.34;93.81;100817.72;4982882;28;21021;-64
2023/08/13 00:13:59;;;;;;;0.80;0.80;;;21.90;99.90;;;22.36;93.92;100821.00;4978226;28;20646;-63
2023/08/13 00:16:25;;;;;;;0.90;0.90;;;21.90;99.90;;;22.37;93.36;100816.53;4986462;28;20646;-65
2023/08/13 00:18:52;;;;;;;1.00;1.00;;;21.90;99.90;;;22.35;93.90;100810.56;4986949;28;20707;-64
2023/08/13 00:21:19;;;;;;;0.87;0.87;;;21.90;99.90;;;22.31;93.85;100817.25;4985561;28;20634;-64
2023/08/13 00:23:48;;;;;;;1.20;1.10;;;21.90;99.90;;;22.31;93.71;100810.13;4989454;28;20658;-64
2023/08/13 00:26:15;;;;;;;1.30;1.30;;;21.90;99.90;;;22.31;93.42;100812.78;4986009;28;20638;-65
2023/08/13 00:28:42;;;;;;;1.07;0.70;;;21.90;99.90;;;22.33;93.40;100809.91;4989511;28;20708;-64
2023/08/13 00:31:09;;;;;;;0.70;0.70;;;21.90;99.90;;;22.32;93.67;100803.78;4989937;28;20733;-64
2023/08/13 00:33:36;;;;;;;0.80;0.80;;;21.90;99.90;;;22.35;93.11;100813.22;4985124;28;20655;-65
2023/08/13 00:36:03;;;;;;;0.83;0.83;;;21.90;99.90;;;22.33;93.05;100804.59;4989011;28;20692;-65
2023/08/13 00:38:30;;;;;;;0.93;0.93;;;21.90;99.90;;;22.29;92.56;100813.94;4987240;28;20716;-65
2023/08/13 00:40:57;;;;;;;3.13;1.10;;;21.80;99.90;;;22.27;92.78;100805.34;4987964;28;21472;-64
2023/08/13 00:43:24;;;;;;;0.60;0.60;;;21.80;99.90;;;22.23;93.08;100804.84;4987926;28;21018;-65
2023/08/13 00:45:51;;;;;;;0.90;0.90;;;21.80;99.90;;;22.22;93.16;100805.03;4990096;28;20646;-64
2023/08/13 00:48:18;;;;;;;0.93;0.93;;;21.80;99.90;;;22.16;93.41;100811.91;4979731;28;20745;-63
2023/08/13 00:50:46;;;;;;;0.90;0.90;;;21.70;99.90;;;22.10;93.98;100803.84;4989352;28;20637;-64
2023/08/13 00:53:14;;;;;;;0.80;0.80;;;21.60;99.90;;;22.04;94.35;100808.03;4989794;28;20677;-64
2023/08/13 00:55:43;;;;;;;0.97;0.97;;;21.60;99.90;;;22.03;94.58;100805.56;4975190;28;20725;-64
2023/08/13 00:58:10;;;;;;;1.40;1.30;;;21.60;99.90;;;21.98;95.29;100803.44;4993881;28;20715;-65
2023/08/13 01:00:38;;;;;;;1.00;0.90;;;21.50;99.90;;;22.01;95.01;100807.56;4994543;28;20709;-63
2023/08/13 01:03:05;;;;;;;0.80;0.80;;;21.50;99.90;;;22.02;95.16;100810.03;4986972;28;20638;-65
2023/08/13 01:05:51;;;;;;;1.07;0.97;;;21.60;99.90;;;22.02;95.23;100806.56;4992031;28;20658;-64
2023/08/13 01:09:05;;;;;;;0.93;0.93;;;21.60;99.90;;;22.02;95.14;100817.22;4988435;28;20737;-61
2023/08/13 01:12:08;;;;;;;0.80;0.80;;;21.60;99.90;;;22.05;95.23;100811.53;4994303;28;21211;-60
2023/08/13 01:14:54;;;;;;;1.43;1.00;;;21.60;99.90;;;22.06;95.14;100821.16;4992427;28;20625;-64
2023/08/13 01:17:22;;;;;;;1.00;1.00;;;21.60;99.90;;;22.07;94.97;100813.00;4990641;28;20649;-64
2023/08/13 01:19:49;;;;;;;0.97;0.97;;;21.60;99.90;;;22.08;94.86;100811.16;4986748;28;20702;-64
2023/08/13 01:22:16;;;;;;;0.70;0.70;;;21.60;99.90;;;22.05;95.04;100814.19;4993578;28;20658;-64
2023/08/13 01:24:43;;;;;;;0.83;0.83;;;21.60;99.90;;;22.04;94.92;100816.00;4988809;28;20655;-64
2023/08/13 01:27:48;;;;;;;1.10;1.10;;;21.60;99.90;;;21.97;95.08;100809.78;4992540;28;20628;-64
2023/08/13 01:30:27;;;;;;;0.90;0.90;;;21.60;99.90;;;22.02;95.39;100817.22;4991281;28;21281;-64
2023/08/13 01:33:02;;;;;;;0.90;0.90;;;21.60;99.90;;;22.00;95.59;100808.59;4990988;28;20645;-65
2023/08/13 01:35:32;;;;;;;0.80;0.80;;;21.60;99.90;;;22.01;95.60;100802.25;4990549;28;20714;-64
2023/08/13 01:38:00;;;;;;;1.13;1.13;;;21.60;99.90;;;22.00;95.64;100803.28;4990891;28;21465;-64
2023/08/13 01:40:27;;;;;;;1.00;1.00;;;21.60;99.90;;;21.98;95.18;100803.44;4992327;28;20733;-65
2023/08/13 01:42:55;;;;;;;0.80;0.80;;;21.60;99.90;;;21.96;95.33;100800.13;4994139;28;20714;-65
2023/08/13 01:45:22;;;;;;;1.07;1.00;;;21.60;99.90;;;21.91;95.11;100809.66;4993277;28;20700;-64
2023/08/13 01:47:49;;;;;;;0.90;0.90;;;21.50;99.90;;;21.87;95.22;100803.84;4988676;28;20638;-65
2023/08/13 01:50:16;;;;;;;1.13;1.13;;;21.50;99.90;;;21.84;95.62;100801.56;4991675;28;20689;-64
2023/08/13 01:52:43;;;;;;;1.00;1.00;;;21.40;99.90;;;21.81;95.75;100801.88;4992076;28;20619;-68
2023/08/13 01:55:10;;;;;;;1.13;1.13;;;21.40;99.90;;;21.78;96.15;100801.44;4988065;28;20638;-65
2023/08/13 01:57:37;;;;;;;1.13;1.00;;;21.40;99.90;;;21.76;96.65;100806.94;4985775;28;20650;-67
2023/08/13 02:00:07;;;;;;;0.83;0.70;;;21.40;99.90;;;21.74;96.38;100790.34;4990536;28;21275;-64
2023/08/13 02:02:37;;;;;;;1.20;1.10;;;21.30;99.90;;;21.73;96.47;100798.47;4990493;28;21083;-64
2023/08/13 02:05:04;;;;;;;1.47;1.17;;;21.30;99.90;;;21.70;96.45;100796.19;4989897;28;20641;-65
2023/08/13 02:07:32;;;;;;;0.80;0.80;;;21.30;99.90;;;21.70;96.59;100817.44;4991639;28;20630;-67
2023/08/13 02:09:59;;;;;;;1.07;1.00;;;21.30;99.90;;;21.66;96.85;100803.66;4991888;28;21090;-64
2023/08/13 02:12:26;;;;;;;1.43;1.33;;;21.30;99.90;;;21.64;97.28;100809.16;4979754;28;20660;-66
2023/08/13 02:14:53;;;;;;;1.70;0.97;;;21.20;99.90;;;21.66;97.64;100814.28;4992940;28;20634;-64
2023/08/13 02:17:20;;;;;;;1.10;1.10;;;21.20;99.90;;;21.70;97.68;100812.94;4989492;28;21649;-67
2023/08/13 02:19:47;;;;;;;1.13;1.03;;;21.30;99.90;;;21.70;97.31;100812.13;4976206;28;20678;-64
2023/08/13 02:22:14;;;;;;;0.80;0.80;;;21.30;99.90;;;21.70;97.21;100823.53;4989445;28;20666;-65
2023/08/13 02:24:42;;;;;;;0.90;0.90;;;21.30;99.90;;;21.72;96.83;100826.06;4989773;28;20732;-66
2023/08/13 02:27:09;;;;;;;0.90;0.90;;;21.30;99.90;;;21.75;97.31;100815.06;4990196;28;20645;-64
2023/08/13 02:29:36;;;;;;;1.00;1.00;;;21.30;99.90;;;21.75;97.07;100815.06;4991157;28;20657;-68
2023/08/13 02:32:03;;;;;;;1.33;1.00;;;21.30;99.90;;;21.77;97.09;100826.31;4992425;28;21199;-64
2023/08/13 02:34:33;;;;;;;1.40;1.10;;;21.30;99.90;;;21.78;97.21;100820.03;4988367;28;21121;-65
2023/08/13 02:37:00;;;;;;;1.50;1.13;;;21.30;99.90;;;21.79;97.21;100824.31;4991216;28;20722;-65
2023/08/13 02:39:27;;;;;;;0.87;0.87;;;21.30;99.90;;;21.77;96.78;100821.00;4988807;28;21243;-64
2023/08/13 02:41:54;;;;;;;0.90;0.90;;;21.40;99.90;;;21.77;96.84;100823.66;4992606;28;21090;-65
2023/08/13 02:44:22;;;;;;;1.00;1.00;;;21.30;99.90;;;21.76;96.94;100820.22;4991603;28;20630;-64
2023/08/13 02:46:49;;;;;;;1.00;1.00;;;21.30;99.90;;;21.74;97.21;100822.22;4984552;28;20658;-64
2023/08/13 02:49:16;;;;;;;0.93;0.93;;;21.30;99.90;;;21.73;97.21;100817.06;4982808;28;21043;-66
2023/08/13 02:51:43;;;;;;;1.00;1.00;;;21.30;99.90;;;21.72;97.14;100815.44;4991855;28;20729;-65
2023/08/13 02:54:10;;;;;;;0.97;0.97;;;21.30;99.90;;;21.69;97.19;100813.94;4988727;28;20631;-68
2023/08/13 02:56:38;;;;;;;0.93;0.93;;;21.30;99.90;;;21.65;97.43;100815.31;4991376;28;21308;-64
2023/08/13 02:59:05;;;;;;;0.97;0.90;;;21.20;99.90;;;21.63;97.74;100810.19;4989523;28;20650;-65
2023/08/13 03:01:32;;;;;;;0.80;0.80;;;21.20;99.90;;;21.62;97.67;100813.81;4989091;28;20658;-65
2023/08/13 03:04:02;;;;;;;1.00;1.00;;;21.20;99.90;;;21.61;98.26;100806.03;4985095;28;20638;-71
2023/08/13 03:06:30;;;;;;;0.77;0.77;;;21.20;99.90;;;21.61;98.03;100806.84;4991014;28;20633;-64
2023/08/13 03:08:57;;;;;;;0.80;0.80;;;21.20;99.90;;;21.59;98.42;100802.75;4989305;28;20758;-67
2023/08/13 03:11:24;;;;;;;1.77;1.00;;;21.20;99.90;;;21.56;98.54;100803.91;4985769;28;20648;-70
2023/08/13 03:13:51;;;;;;;1.60;1.10;;;21.10;99.90;;;21.52;98.62;100805.28;4989494;28;20622;-68
2023/08/13 03:16:19;;;;;;;0.83;0.83;;;21.10;99.90;;;21.50;98.61;100815.25;4984474;28;20638;-65
2023/08/13 03:18:46;;;;;;;0.97;0.97;;;21.10;99.90;;;21.48;98.30;100808.47;4990450;28;20649;-64
2023/08/13 03:21:13;;;;;;;1.03;1.03;;;21.10;99.90;;;21.39;98.92;100815.66;4989341;28;21154;-64
2023/08/13 03:23:40;;;;;;;1.20;1.10;;;21.00;99.90;;;21.35;99.15;100806.38;4988624;28;20638;-64
2023/08/13 03:26:07;;;;;;;0.97;0.97;;;20.90;99.90;;;21.34;99.59;100812.69;4990643;28;21191;-65
2023/08/13 03:28:34;;;;;;;1.30;1.20;;;20.90;99.90;;;21.27;99.81;100811.75;4988384;28;20721;-64
2023/08/13 03:31:02;;;;;;;1.20;1.10;;;20.80;99.90;;;21.27;99.89;100814.41;4992072;28;20688;-66
2023/08/13 03:33:29;;;;;;;1.10;1.10;;;20.80;99.90;;;21.25;100.00;100805.75;4986404;28;21282;-65
2023/08/13 03:35:56;;;;;;;1.17;1.17;;;20.80;99.90;;;21.25;100.00;100811.06;4983885;28;20713;-65
2023/08/13 03:38:23;;;;;;;6.70;1.07;;;20.80;99.90;;;21.25;100.00;100811.06;4989125;28;20694;-69
2023/08/13 03:40:54;;;;;;;0.80;0.80;;;20.80;99.90;;;21.23;99.91;100805.09;4989713;28;21247;-65
2023/08/13 03:43:21;;;;;;;1.00;0.90;;;20.80;99.90;;;21.21;100.00;100806.31;4990461;28;20648;-67
2023/08/13 03:45:48;;;;;;;1.00;1.00;;;20.80;99.90;;;21.17;100.00;100800.50;4988739;28;20837;-64
2023/08/13 03:48:15;;;;;;;0.93;0.93;;;20.80;99.90;;;21.13;100.00;100804.50;4988534;28;20654;-68
2023/08/13 03:50:43;;;;;;;0.87;0.87;;;20.70;99.90;;;21.09;100.00;100797.91;4988063;28;20790;-66
2023/08/13 03:53:11;;;;;;;1.37;1.27;;;20.70;99.90;;;21.05;100.00;100795.75;4987890;28;20658;-65
2023/08/13 03:55:38;;;;;;;1.83;1.37;;;20.70;99.90;;;21.02;100.00;100801.41;4989482;28;20642;-66
2023/08/13 03:58:05;;;;;;;2.73;1.10;;;20.60;99.90;;;20.99;100.00;100807.03;4986724;28;21069;-67
2023/08/13 04:00:32;;;;;;;0.90;0.90;;;20.60;99.90;;;20.97;100.00;100804.56;4990593;28;21539;-65
2023/08/13 04:02:59;;;;;;;0.87;0.87;;;20.50;99.90;;;20.95;100.00;100801.28;4985765;28;21219;-65
2023/08/13 04:05:45;;;;;;;1.97;1.50;;;20.50;99.90;;;20.93;100.00;100803.28;4987591;28;21213;-67
2023/08/13 04:08:12;;;;;;;0.90;0.90;;;20.50;99.90;;;20.91;100.00;100804.44;4989748;28;20746;-66
2023/08/13 04:10:40;;;;;;;1.40;1.30;;;20.50;99.90;;;20.92;100.00;100812.22;4987975;28;20641;-68
2023/08/13 04:13:07;;;;;;;0.97;0.97;;;20.50;99.90;;;20.89;100.00;100809.91;4986789;28;20647;-64
2023/08/13 04:15:33;;;;;;;0.87;0.87;;;20.50;99.90;;;20.91;100.00;100815.03;4988864;28;20680;-69
2023/08/13 04:18:00;;;;;;;1.20;1.20;;;20.50;99.90;;;20.91;100.00;100815.88;4987776;28;20752;-64
2023/08/13 04:20:27;;;;;;;1.17;1.17;;;20.50;99.90;;;20.93;100.00;100808.56;4986993;28;20658;-64
2023/08/13 04:22:54;;;;;;;0.90;0.90;;;20.50;99.90;;;20.94;100.00;100814.69;4990112;28;20650;-65
2023/08/13 04:25:21;;;;;;;1.03;1.03;;;20.50;99.90;;;20.93;100.00;100813.88;4989961;28;20626;-64
2023/08/13 04:27:48;;;;;;;1.37;1.23;;;20.50;99.90;;;20.95;100.00;100811.03;4987189;28;20729;-64
2023/08/13 04:30:15;;;;;;;3.27;1.10;;;20.50;99.90;;;20.96;100.00;100810.84;4990517;28;20717;-64
2023/08/13 04:32:53;;;;;;;1.57;0.93;;;20.50;99.90;;;20.97;100.00;100812.53;4980410;28;20642;-65
2023/08/13 04:35:25;;;;;;;1.77;1.37;;;20.60;99.90;;;20.97;100.00;100809.03;4982509;28;20645;-68
2023/08/13 04:37:52;;;;;;;1.30;1.20;;;20.60;99.90;;;20.96;100.00;100813.50;4989110;28;20669;-70
2023/08/13 04:40:19;;;;;;;1.07;1.07;;;20.50;99.90;;;20.96;100.00;100807.38;4987857;28;20680;-64
2023/08/13 04:42:46;;;;;;;1.10;1.10;;;20.50;99.90;;;20.97;100.00;100809.88;4989537;28;20638;-67
2023/08/13 04:45:13;;;;;;;1.27;1.27;;;20.50;99.90;;;20.98;100.00;100816.81;4987651;28;20689;-64
2023/08/13 04:47:40;;;;;;;1.17;1.17;;;20.50;99.90;;;21.00;100.00;100819.31;4982906;28;20638;-65
2023/08/13 04:50:09;;;;;;;0.97;0.97;;;20.60;99.90;;;21.02;100.00;100817.31;4985782;28;20641;-64
2023/08/13 04:52:36;;;;;;;1.60;1.50;;;20.60;99.90;;;21.01;100.00;100824.44;4989621;28;20653;-65
2023/08/13 04:55:04;;;;;;;0.90;0.90;;;20.60;99.90;;;21.04;100.00;100815.34;4987910;28;20642;-64
2023/08/13 04:57:31;;;;;;;1.07;1.07;;;20.60;99.90;;;21.05;100.00;100823.13;4987852;28;20649;-64
2023/08/13 04:59:59;;;;;;;1.00;1.00;;;20.60;99.90;;;21.04;100.00;100831.28;4988283;28;20666;-64
2023/08/13 05:02:26;;;;;;;1.40;1.30;;;20.60;99.90;;;21.02;100.00;100833.25;4988429;28;20639;-65
2023/08/13 05:04:54;;;;;;;1.00;1.00;;;20.60;99.90;;;20.99;100.00;100826.44;4984949;28;20649;-64
2023/08/13 05:07:22;;;;;;;0.87;0.87;;;20.60;99.90;;;21.02;100.00;100830.59;4989620;28;20641;-65
2023/08/13 05:09:49;;;;;;;1.30;1.30;;;20.60;99.90;;;21.01;100.00;100826.25;4986450;28;20638;-65
2023/08/13 05:12:16;;;;;;;1.27;1.17;;;20.60;99.90;;;21.00;100.00;100825.44;4987478;28;20986;-64
2023/08/13 05:14:43;;;;;;;1.90;1.30;;;20.60;99.90;;;21.05;100.00;100827.59;4978290;28;21255;-67
2023/08/13 05:17:21;;;;;;;1.40;1.30;;;20.60;99.90;;;21.10;100.00;100828.75;4975722;28;20697;-65
2023/08/13 05:19:48;;;;;;;1.63;1.27;;;20.70;99.90;;;21.14;100.00;100824.75;4976177;28;21266;-64
2023/08/13 05:22:15;;;;;;;1.53;1.43;;;20.70;99.90;;;21.15;100.00;100818.44;4992851;28;20633;-65
2023/08/13 05:24:43;;;;;;;1.07;1.07;;;20.70;99.90;;;21.17;100.00;100821.72;4986173;28;21144;-64
2023/08/13 05:27:10;;;;;;;1.17;1.17;;;20.80;99.90;;;21.19;100.00;100821.59;4989220;28;20629;-64
2023/08/13 05:29:38;;;;;;;1.13;1.13;;;20.80;99.90;;;21.21;100.00;100831.00;4989285;28;21294;-68
2023/08/13 05:32:05;;;;;;;1.50;1.40;;;20.80;99.90;;;21.27;100.00;100817.06;4985732;28;20676;-64
2023/08/13 05:34:32;;;;;;;1.30;1.30;;;20.80;99.90;;;21.33;100.00;100823.47;4989776;28;20626;-65
2023/08/13 05:36:59;;;;;;;1.30;1.30;;;20.90;99.90;;;21.32;100.00;100819.16;4984399;28;20696;-67
2023/08/13 05:39:26;;;;;;;1.47;1.47;;;20.90;99.90;;;21.32;100.00;100830.59;4988853;28;20740;-65
2023/08/13 05:41:53;;;;;;;1.40;1.30;;;20.90;99.90;;;21.36;100.00;100831.09;4987434;28;20680;-67
2023/08/13 05:44:20;;;;;;;1.50;1.40;;;20.90;99.90;;;21.39;100.00;100831.56;4992765;28;20626;-65
2023/08/13 05:46:46;;;;;;;1.30;1.30;;;21.00;99.90;;;21.46;99.97;100829.03;4985713;28;21006;-64
2023/08/13 05:49:13;;;;;;;1.37;1.33;;;21.00;99.90;;;21.49;99.99;100826.84;4991050;28;20657;-64
2023/08/13 05:51:42;;;;;;;1.17;1.17;;;21.10;99.90;;;21.54;99.51;100832.47;4990409;28;21364;-64
2023/08/13 05:54:10;;;;;;;1.40;1.40;;;21.10;99.90;;;21.61;99.19;100827.28;4989804;28;20637;-65
2023/08/13 05:56:37;;;;;;;1.43;1.37;;;21.20;99.90;;;21.66;98.70;100832.06;4989753;28;20642;-64
2023/08/13 05:59:04;;;;;;;1.80;1.50;;;21.20;99.90;;;21.76;98.47;100830.00;4993311;28;20657;-64
2023/08/13 06:01:32;;;;;;;3.20;1.30;;;21.30;99.90;;;21.84;97.93;100835.28;4992323;28;20709;-65
2023/08/13 06:04:01;;;;;;;1.50;1.40;;;21.40;99.90;;;21.92;97.23;100833.38;4991666;28;20634;-65
2023/08/13 06:06:28;;;;;;;1.53;1.43;;;21.50;99.90;;;22.04;96.63;100831.13;4990473;28;20641;-69
2023/08/13 06:08:55;;;;;;;1.60;1.50;;;21.60;99.90;;;22.16;95.96;100835.00;4984156;28;20729;-65
2023/08/13 06:11:22;;;;;;;1.10;1.10;;;21.70;99.90;;;22.27;95.42;100831.91;4990662;28;20653;-65
2023/08/13 06:13:50;;;;;;;1.70;1.60;;;21.80;99.90;;;22.40;94.32;100826.81;4988439;28;20641;-65
2023/08/13 06:16:18;;;;;;;1.17;1.17;;;22.00;99.90;;;22.54;94.46;100835.78;4984403;28;21085;-66
2023/08/13 06:18:44;;;;;;;1.00;1.00;;;22.00;99.90;;;22.65;93.18;100836.19;4989952;28;20649;-65
2023/08/13 06:21:11;;;;;;;1.17;1.17;;;22.20;99.90;;;22.80;92.28;100838.84;4990478;28;20673;-68
2023/08/13 06:23:38;;;;;;;1.67;1.47;;;22.30;99.90;;;22.92;90.67;100830.22;4990425;28;20696;-65
2023/08/13 06:26:06;;;;;;;1.43;1.37;;;22.50;99.90;;;23.02;89.24;100841.41;4989466;28;20638;-65
2023/08/13 06:28:34;;;;;;;1.37;1.27;;;22.60;99.90;;;23.15;88.39;100841.56;4982930;28;20673;-64
2023/08/13 06:31:02;;;;;;;1.20;1.17;;;22.70;99.90;;;23.41;87.56;100843.75;4978656;28;20641;-69
2023/08/13 06:33:29;;;;;;;1.60;1.50;;;22.90;99.90;;;23.64;86.85;100847.06;4981254;28;21203;-65
2023/08/13 06:35:56;;;;;;;1.40;1.40;;;23.10;99.90;;;23.89;85.66;100852.84;4979260;28;21051;-66
2023/08/13 06:38:25;;;;;;;1.40;1.40;;;23.40;99.90;;;24.03;83.64;100849.28;4988715;28;20650;-64
2023/08/13 06:40:52;;;;;;;1.20;1.20;;;23.50;99.90;;;24.26;83.06;100846.41;4986125;28;20732;-65
2023/08/13 06:43:19;;;;;;;1.10;1.10;;;23.70;99.90;;;24.58;80.89;100845.81;4992081;28;20713;-66
2023/08/13 06:45:46;;;;;;;1.57;1.47;;;24.00;99.90;;;25.07;78.74;100845.69;4988593;28;21062;-65
2023/08/13 06:48:13;;;;;;;2.43;1.80;;;24.50;99.90;;;25.52;75.36;100845.06;4992885;28;20647;-64
2023/08/13 06:50:40;;;;;;;1.77;1.37;;;24.90;99.90;;;25.75;73.70;100844.69;4981576;28;20642;-67
2023/08/13 06:53:07;;;;;;;1.07;1.07;;;25.20;99.90;;;25.89;73.15;100844.53;4980121;28;21028;-65
2023/08/13 06:55:34;;;;;;;1.33;1.33;;;25.30;99.90;;;26.05;73.27;100846.78;4982042;28;20694;-68
2023/08/13 06:58:01;;;;;;;1.20;1.20;;;25.50;99.90;;;26.17;72.35;100836.34;4976901;28;20658;-65
2023/08/13 07:00:28;;;;;;;1.10;1.10;;;25.60;99.90;;;26.40;71.16;100835.88;4980579;28;20670;-65
2023/08/13 07:03:07;;;;;;;1.57;1.47;;;25.80;99.90;;;26.74;69.35;100841.00;4979647;28;20635;-65
2023/08/13 07:05:36;;;;;;;1.00;1.00;;;26.20;99.90;;;26.80;68.41;100845.50;4986719;28;20642;-65
2023/08/13 07:08:04;;;;;;;1.53;1.43;;;26.30;99.90;;;26.90;68.61;100846.69;4990674;28;20644;-66
2023/08/13 07:10:32;;;;;;;1.40;1.23;;;26.40;99.90;;;27.10;67.54;100843.97;4987797;28;21089;-65
2023/08/13 07:12:59;;;;;;;1.27;1.20;;;26.60;99.90;;;27.19;67.42;100853.41;4992035;28;21259;-65
2023/08/13 07:15:26;;;;;;;1.47;1.43;;;26.70;99.90;;;27.10;67.70;100843.13;4985990;28;20650;-69
2023/08/13 07:17:53;;;;;;;1.37;1.27;;;26.60;99.90;;;27.10;67.25;100849.31;4980615;28;20649;-64
2023/08/13 07:20:20;;;;;;;1.43;1.27;;;26.60;99.90;;;27.06;67.13;100840.06;4994012;28;20640;-66
2023/08/13 07:22:48;;;;;;;1.67;1.57;;;26.60;99.90;;;27.02;67.53;100840.69;4983804;28;20669;-67
2023/08/13 07:25:15;;;;;;;1.93;1.20;;;26.50;99.90;;;27.03;67.82;100845.00;4980638;28;20659;-67
2023/08/13 07:27:43;;;;;;;2.87;1.50;;;26.50;99.90;;;27.01;68.23;100839.03;4981285;28;20638;-64
2023/08/13 07:30:12;;;;;;;1.50;1.40;;;26.50;99.90;;;27.05;67.21;100833.06;4985650;28;20631;-65
2023/08/13 07:32:43;;;;;;;1.40;1.30;;;26.50;99.90;;;27.20;66.85;100840.81;4988146;28;20736;-68
2023/08/13 07:35:12;;;;;;;1.63;1.53;;;26.70;99.90;;;27.54;64.75;100846.66;4982239;28;20638;-65
2023/08/13 07:37:39;;;;;;;1.57;1.47;;;27.00;99.90;;;28.23;62.90;100851.94;4987057;28;20641;-66
2023/08/13 07:40:07;;;;;;;1.63;1.53;;;27.60;99.90;;;29.05;60.17;100848.81;4990581;28;20637;-65
2023/08/13 07:42:35;;;;;;;1.37;1.37;;;28.40;99.90;;;29.78;58.53;100857.59;4980534;28;20778;-67
2023/08/13 07:45:06;;;;;;;1.37;1.37;;;29.10;99.90;;;30.39;57.18;100857.22;4986647;28;20639;-64
2023/08/13 07:47:36;;;;;;;1.00;1.00;;;29.80;99.90;;;30.74;55.01;100862.59;4980904;28;20638;-63
2023/08/13 07:50:05;;;;;;;1.23;1.23;;;30.20;99.90;;;30.92;52.90;100858.97;4985368;28;20689;-69
2023/08/13 07:52:34;;;;;;;1.40;1.37;;;30.40;99.90;;;31.52;52.36;100865.56;4980911;28;20749;-65
2023/08/13 07:55:02;;;;;;;1.10;1.10;;;31.00;99.90;;;31.95;50.41;100860.44;4981822;28;20646;-67
2023/08/13 07:57:30;;;;;;;1.50;1.40;;;31.50;99.90;;;31.84;50.77;100857.78;4982453;28;20639;-68
2023/08/13 07:59:58;;;;;;;2.00;1.30;;;31.40;99.90;;;31.82;51.02;100857.19;4990750;28;20741;-64
2023/08/13 08:02:25;;;;;;;1.30;1.30;;;31.40;99.90;;;31.31;51.87;100856.25;4981492;28;20710;-65
2023/08/13 08:04:52;;;;;;;1.30;1.30;;;31.00;99.90;;;30.86;52.76;100857.22;4989429;28;20626;-66
2023/08/13 08:07:21;;;;;;;1.50;1.50;;;30.50;99.90;;;30.24;53.88;100846.06;4986050;28;20730;-68
2023/08/13 08:09:48;;;;;;;2.13;1.47;;;30.00;99.90;;;29.59;54.26;100847.91;4987764;28;20653;-70
2023/08/13 08:12:15;;;;;;;1.27;1.27;;;29.30;99.90;;;29.24;55.64;100852.31;4984845;28;21130;-64
2023/08/13 08:14:42;;;;;;;1.50;1.40;;;28.90;99.90;;;29.27;56.42;100837.63;4988501;28;20646;-68
2023/08/13 08:17:09;;;;;;;1.10;1.10;;;28.90;99.90;;;29.77;54.61;100845.19;4989133;28;20633;-72
2023/08/13 08:19:36;;;;;;;1.60;1.50;;;29.20;99.90;;;30.40;53.67;100837.34;4983147;28;20715;-67
2023/08/13 08:22:03;;;;;;;3.17;1.50;;;29.90;99.90;;;30.51;53.88;100833.81;4988079;28;20706;-67
2023/08/13 08:24:30;;;;;;;1.67;1.63;;;30.10;99.90;;;30.86;53.60;100844.56;4989062;28;20656;-68
2023/08/13 08:26:58;;;;;;;1.63;1.30;;;30.40;99.90;;;31.16;52.21;100842.47;4989690;28;20692;-67
2023/08/13 08:29:25;;;;;;;1.50;1.50;;;30.70;99.90;;;31.35;51.09;100843.94;4990949;28;20650;-68
2023/08/13 08:31:52;;;;;;;1.47;1.40;;;30.90;99.90;;;31.04;51.28;100835.50;4987288;28;20994;-69
2023/08/13 08:34:19;;;;;;;1.70;1.60;;;30.70;99.90;;;30.53;52.04;100841.66;4987790;28;21217;-68
2023/08/13 08:36:46;;;;;;;1.50;1.40;;;30.20;99.90;;;30.09;52.17;100839.53;4982525;28;20646;-68
2023/08/13 08:39:13;;;;;;;1.17;1.17;;;29.70;99.90;;;29.64;52.40;100829.25;4989832;28;20669;-68
2023/08/13 08:41:46;;;;;;;1.40;1.30;;;29.30;99.90;;;29.89;52.58;100832.59;4989007;28;20665;-70
2023/08/13 08:44:20;;;;;;;1.30;1.30;;;29.40;99.90;;;30.33;51.50;100828.56;5002466;28;20696;-69
2023/08/13 08:46:53;;;;;;;1.97;1.87;;;29.80;99.90;;;30.24;50.05;100839.88;4988514;28;20705;-66
2023/08/13 08:49:23;;;;;;;1.20;1.20;;;29.80;99.90;;;29.84;50.76;100834.31;4986113;28;20658;-69
2023/08/13 08:51:51;;;;;;;1.63;1.53;;;29.50;99.90;;;29.51;51.60;100832.13;4987315;28;20642;-68
2023/08/13 08:54:19;;;;;;;1.20;1.20;;;29.10;99.90;;;29.22;53.07;100830.22;4989527;28;21213;-68
2023/08/13 08:56:46;;;;;;;1.40;1.30;;;28.80;99.90;;;29.05;53.17;100829.19;4984295;28;20696;-66
2023/08/13 08:59:13;;;;;;;1.83;1.20;;;28.60;99.90;;;28.85;53.17;100834.81;4989930;28;20650;-68
2023/08/13 09:01:40;;;;;;;1.30;1.20;;;28.40;99.90;;;28.55;53.27;100831.19;4988598;28;21143;-70
2023/08/13 09:04:08;;;;;;;1.50;1.40;;;28.10;99.90;;;28.26;52.17;100838.06;4986966;28;20646;-66
2023/08/13 09:07:07;;;;;;;1.53;1.00;;;27.90;99.90;;;28.06;53.52;100836.63;4987183;28;20649;-68
2023/08/13 09:09:35;;;;;;;1.50;1.40;;;27.60;99.90;;;27.83;53.57;100829.13;4976910;28;20658;-70
2023/08/13 09:12:02;;;;;;;1.90;1.33;;;27.40;99.90;;;27.66;53.43;100830.69;4989023;28;20626;-65
2023/08/13 09:14:29;;;;;;;0.90;0.90;;;27.20;99.90;;;27.62;53.40;100834.84;4991550;28;20996;-66
2023/08/13 09:16:57;;;;;;;1.10;1.10;;;27.10;99.90;;;27.63;52.22;100834.63;4978851;28;20670;-65
2023/08/13 09:19:27;;;;;;;1.10;1.10;;;27.10;99.90;;;27.56;51.71;100827.66;4989354;28;20748;-69
2023/08/13 09:22:00;;;;;;;2.87;0.80;;;27.00;99.90;;;27.54;51.73;100819.00;4990513;28;20782;-67
2023/08/13 09:24:33;;;;;;;1.23;1.23;;;27.00;99.90;;;27.52;51.00;100826.44;4992914;28;20629;-67
2023/08/13 09:27:01;;;;;;;1.20;1.00;;;27.00;99.90;;;27.53;51.46;100817.38;4990999;28;20645;-66
2023/08/13 09:29:32;;;;;;;1.53;1.47;;;27.00;99.90;;;27.62;52.10;100821.47;4993654;28;21032;-70
2023/08/13 09:32:01;;;;;;;1.77;1.00;;;27.00;99.90;;;27.73;51.90;100811.91;4991630;28;20653;-68
2023/08/13 09:34:30;;;;;;;2.30;1.53;;;27.10;99.90;;;27.82;51.88;100811.41;4992418;28;20668;-67
2023/08/13 09:36:58;;;;;;;1.13;1.13;;;27.30;99.90;;;27.92;50.21;100818.97;4983412;28;20657;-67
2023/08/13 09:39:28;;;;;;;1.80;1.27;;;27.30;99.90;;;28.00;50.12;100810.66;4993554;28;20654;-69
2023/08/13 09:41:55;;;;;;;1.10;1.10;;;27.40;99.90;;;27.96;49.77;100809.44;4993802;28;20789;-65
2023/08/13 09:44:26;;;;;;;1.43;1.17;;;27.40;99.60;;;27.83;50.40;100796.13;4993820;28;20630;-65
2023/08/13 09:47:02;;;;;;;1.27;1.17;;;27.30;99.90;;;27.83;51.06;100813.06;4988909;28;20641;-67
2023/08/13 09:49:34;;;;;;;1.30;1.30;;;27.30;99.90;;;28.00;51.12;100810.66;4991233;28;20731;-68
2023/08/13 09:52:08;;;;;;;1.10;1.10;;;27.40;99.90;;;28.22;51.12;100809.22;4987952;28;21063;-70
2023/08/13 09:54:50;;;;;;;1.00;1.00;;;27.60;99.90;;;28.51;49.87;100810.38;4992275;28;20633;-67
2023/08/13 09:57:20;;;;;;;1.57;1.30;;;27.90;99.90;;;28.73;50.10;100795.50;4988775;28;20666;-70
2023/08/13 09:59:49;;;;;;;1.17;1.17;;;28.10;99.90;;;28.93;49.44;100799.59;4994068;28;20689;-67
2023/08/13 10:02:18;;;;;;;3.67;1.10;;;28.30;99.70;;;29.09;48.98;100795.47;4989554;28;20654;-64
2023/08/13 10:04:46;;;;;;;1.83;1.00;;;28.50;99.30;;;29.20;48.77;100799.28;4992880;28;21498;-65
2023/08/13 10:07:13;;;;;;;1.67;1.30;;;28.60;99.10;;;29.27;48.49;100802.69;4990327;28;20721;-67
2023/08/13 10:09:41;;;;;;;1.50;1.33;;;28.70;98.90;;;29.33;48.22;100807.13;5008055;28;20720;-66
2023/08/13 10:12:12;;;;;;;1.13;1.13;;;28.80;98.80;;;29.30;48.09;100802.25;4990398;28;20787;-67
2023/08/13 10:14:39;;;;;;;1.87;1.43;;;28.70;98.70;;;29.23;48.71;100801.50;4993177;28;20749;-67
2023/08/13 10:17:07;;;;;;;1.23;1.20;;;28.70;98.60;;;29.04;48.53;100804.22;4985541;28;21039;-67